Airfield :
LOGIN :

Register | Disclaimer

   EN    FR    IT 

 










Legend :    VFR   Marginal VFR   IFR   Intensive IFR   Very Intensive IFR
Visi :
Ceiling :
>= 8 km
>= 3000ft
5 to 8 km
1000 to 3000 ft
1500m to 5 km
500 to 1000 ft
800 to 1500m
200 to 500 ft
< 800m
< 200 ft
Symbols :   Thunderstorms  Fog  Heavy snow  Heavy precipitations  Wind > 20 kt
SIGMETs :     Misc.  Thunderstorms  Icing  Turbulence  Mountain Waves  Volcanic Ashes







- Airport Elevation : 187 ft


LPMR - Monte Real Air Base

CURRENT METAR :
  • 210400Z VRB02KT 1600 -DZ BR OVC006 11/11 Q1032

EXPIRED METARs :
  • 210300Z VRB02KT 2000 -DZ BR BKN008 BKN014 11/10 Q1032

TAF TAF LPMR
Valid from the 21 at 00:00 until the 22 at 00:00 UTC


202309Z 2100/2124 VRB02KT 5000 BR BKN007 BKN015
PROB40 2100/2110 0100 -DZ FG BKN002
BECMG 2111/2113 9999 NSW FEW010 BKN016
BECMG 2117/2119 5000 BR SCT007 BKN012
PROB40 2119/2124 0400 FG BKN002
No reported NOTAMs for that airfield.



MET'MAP, your aeronautical weather chart ! - Copyright ORBIFLY December 2007 - Disclaimer

ORBIFLY MET'MAP TEAM :

Programming & Development : Alexandra Zaïnal
Concept & Development : Baudouin d'Aumeries
Co-Development & Prog : Marc-Olivier Méhu
Technical & hardware support : Manuel Goepfert

Contact : metmap@orbifly.com




SOURCES & CREDITS :

   NOAA